Visit the IPS Meteostar Home Page IPSM Rogue Valley International Airport FORECAST

Medford, Oregon

52

78

78

75

75

75

75

74

38
38
40
43
43
43
43
43

3 miles away at Rogue Valley International Airport 3:53 GMT

Weather:

 Clear 

Wind:

CALM

Temperature:

52 ° F

Pressure:

30.22

Dew Point:

27 ° F

Relative Humidity:

36

Feels Like:

52 ° F

Visibility:

10 miles


Aviation Observations:

KMFR 160353Z AUTO 00000KT 10SM CLR 11/M03 A3020 RMK AO2 SLP227 T01111028 =

National Weather Service Forecast:
Jackson County

jackson county- including the cities of medford and ashland
807 PM PDT MON OCT 15 2018 ...freeze warning in effect from 2 am to 9 am pdt tuesday... ...frost advisory in effect from 2 am to 9 am pdt tuesday... Rest of tonight...clear. Areas of frost after midnight. Lows in the mid 30s to lower 40s in the valleys and in the lower 40s to lower 50s at higher elevations. East winds 5 to 10 mph.

TUESDAY

Sunny. Areas of frost in the morning. Highs in the mid 70s to lower 80s. East winds 5 to 10 mph.

TUESDAY NIGHT

Clear. Lows in the mid 30s to mid 40s. East winds 5 to 10 mph.

WEDNESDAY

Sunny. Highs in the mid 70s to lower 80s. East winds around 5 mph.

WEDNESDAY NIGHT

Clear. Lows in the lower to mid 40s. Northwest winds around 5 mph shifting to the east after midnight.

THURSDAY THROUGH SUNDAY NIGHT

Clear. Highs in the mid 70s to mid 80s. Lows in the lower 40s to lower 50s.

MONDAY

Sunny. Highs in the lower to mid 70s.


Visit the IPS Meteostar Home Page